Terminal Aerodrome Forecast
Issued by NWS Chicago, IL

Home | Current Version | Previous Version | Text Only | Print | Product List | Glossary Off
Versions: 1 2 3 4 5 6 7 8 9 10 11 12 13 14 15 16 17 18 19 20 21 22 23 24 25 26 27 28 29 30 31 32 33 34 35 36 37

000
FTUS43 KLOT 262001 AAA
TAFRFD
TAF AMD
KRFD 262001Z 2620/2718 32012KT P6SM BKN040
     FM270200 36009KT P6SM BKN035
     FM270800 36012KT P6SM BKN050
     FM271200 36009KT P6SM SCT050=

USA.gov is the U.S. government's official web portal to all federal, state and local government web resources and services.